createdAt,value
2023-07-03T00:02:54.227Z,10.77
2023-07-03T00:07:59.507Z,11.00
2023-07-03T00:13:02.843Z,11.00
2023-07-03T00:18:06.309Z,11.45
2023-07-03T00:23:11.017Z,10.80
2023-07-03T00:28:14.444Z,11.63
2023-07-03T00:33:17.913Z,11.60
2023-07-03T00:38:22.817Z,11.05
2023-07-03T00:43:28.229Z,11.30
2023-07-03T00:48:31.730Z,11.05
2023-07-03T00:53:36.713Z,12.27
2023-07-03T00:58:40.434Z,11.30
2023-07-03T01:03:50.084Z,11.55
2023-07-03T01:08:59.732Z,11.33
2023-07-03T01:14:04.505Z,11.13
2023-07-03T01:19:14.587Z,11.40
2023-07-03T01:24:31.901Z,11.30
2023-07-03T01:29:37.899Z,11.35
2023-07-03T01:34:46.780Z,12.10
2023-07-03T01:39:52.497Z,12.27
2023-07-03T01:44:55.890Z,12.63
2023-07-03T01:49:59.220Z,11.68
2023-07-03T01:55:09.499Z,12.63
2023-07-03T02:00:17.942Z,12.77
2023-07-03T02:05:26.220Z,12.60
2023-07-03T02:10:31.121Z,12.45
2023-07-03T02:15:34.431Z,12.70
2023-07-03T02:20:39.485Z,12.57
2023-07-03T02:25:44.925Z,12.48
2023-07-03T02:30:48.893Z,12.90
2023-07-03T02:35:52.599Z,12.43
2023-07-03T02:40:57.592Z,12.87
2023-07-03T02:46:05.458Z,12.48
2023-07-03T02:51:09.451Z,13.32
2023-07-03T02:56:14.214Z,13.13
2023-07-03T03:01:20.193Z,13.02
2023-07-03T03:06:24.634Z,12.43
2023-07-03T03:11:29.381Z,13.07
2023-07-03T03:16:35.073Z,12.82
2023-07-03T03:21:39.382Z,12.20
2023-07-03T03:26:44.489Z,13.00
2023-07-03T03:31:47.971Z,14.02
2023-07-03T03:36:51.343Z,13.40
2023-07-03T03:41:56.181Z,13.82
2023-07-03T03:46:59.676Z,12.93
2023-07-03T03:52:04.113Z,13.53
2023-07-03T03:57:09.162Z,12.87
2023-07-03T04:02:14.059Z,12.55
2023-07-03T04:07:19.110Z,12.37
2023-07-03T04:12:23.779Z,12.63
2023-07-03T04:17:27.077Z,12.47
2023-07-03T04:22:30.362Z,12.40
2023-07-03T04:27:35.137Z,12.50
2023-07-03T04:32:39.554Z,12.82
2023-07-03T04:37:43.344Z,12.55
2023-07-03T04:42:49.870Z,12.38
2023-07-03T04:47:53.222Z,12.83
2023-07-03T04:52:59.025Z,12.30
2023-07-03T04:58:05.740Z,12.50
2023-07-03T05:03:10.090Z,13.15
2023-07-03T05:08:13.449Z,13.32
2023-07-03T05:13:18.223Z,12.90
2023-07-03T05:18:21.655Z,12.20
2023-07-03T05:23:24.943Z,11.83
2023-07-03T05:28:29.654Z,11.90
2023-07-03T05:33:33.158Z,11.10
2023-07-03T05:38:36.941Z,12.10
2023-07-03T05:43:41.947Z,11.27
2023-07-03T05:48:45.519Z,11.70
2023-07-03T05:53:48.900Z,11.95
2023-07-03T05:58:53.528Z,10.60
2023-07-03T06:03:57.063Z,11.63
2023-07-03T06:09:00.513Z,11.10
2023-07-03T06:14:05.165Z,11.77
2023-07-03T06:19:08.427Z,11.65
2023-07-03T06:24:13.973Z,11.27
2023-07-03T06:29:18.677Z,11.65
2023-07-03T06:34:22.135Z,11.88
2023-07-03T06:39:25.476Z,11.15
2023-07-03T06:44:30.135Z,11.13
2023-07-03T06:49:33.887Z,10.80
2023-07-03T06:54:37.164Z,11.07
2023-07-03T06:59:41.807Z,10.27
2023-07-03T07:04:46.621Z,10.60
2023-07-03T07:09:50.035Z,10.55
2023-07-03T07:14:54.766Z,11.20
2023-07-03T07:19:59.160Z,10.90
2023-07-03T07:25:03.024Z,10.50
2023-07-03T07:30:09.464Z,10.38
2023-07-03T07:35:12.700Z,10.70
2023-07-03T07:40:16.013Z,10.65
2023-07-03T07:45:20.820Z,10.33
2023-07-03T07:50:24.494Z,9.50
2023-07-03T07:55:27.851Z,9.90
2023-07-03T08:00:34.128Z,9.38
2023-07-03T08:05:38.686Z,7.23
2023-07-03T08:10:42.259Z,9.60
2023-07-03T08:15:48.278Z,7.90
2023-07-03T08:20:52.481Z,8.43
2023-07-03T08:25:57.015Z,7.67
2023-07-03T08:31:02.065Z,5.45
2023-07-03T08:41:14.650Z,5.43
2023-07-03T08:46:22.785Z,6.40
2023-07-03T08:51:30.495Z,6.83
2023-07-03T08:56:35.892Z,7.40
2023-07-03T09:01:48.872Z,7.22
2023-07-03T09:06:56.234Z,5.43
2023-07-03T09:12:15.425Z,6.53
2023-07-03T09:17:20.710Z,6.43
2023-07-03T09:22:30.287Z,4.73
2023-07-03T09:27:33.557Z,6.27
2023-07-03T09:32:38.378Z,5.35
2023-07-03T09:37:46.077Z,4.83
2023-07-03T09:42:50.200Z,6.63
2023-07-03T09:47:59.653Z,6.40
2023-07-03T09:53:09.381Z,6.22
2023-07-03T09:58:15.953Z,6.93
2023-07-03T10:08:44.607Z,7.00
2023-07-03T10:13:52.911Z,7.45
2023-07-03T10:19:00.205Z,5.97
2023-07-03T10:24:04.194Z,6.00
2023-07-03T10:29:13.801Z,6.82
2023-07-03T10:34:23.476Z,5.03
2023-07-03T10:39:36.964Z,8.25
2023-07-03T10:44:42.596Z,6.43
2023-07-03T10:49:48.079Z,6.43
2023-07-03T10:54:58.737Z,4.43
2023-07-03T11:00:08.488Z,6.25
2023-07-03T11:05:22.135Z,6.00
2023-07-03T11:10:33.200Z,5.60
2023-07-03T11:15:45.900Z,5.68
2023-07-03T11:31:20.899Z,5.68
2023-07-03T11:36:50.251Z,5.82
2023-07-03T11:47:25.365Z,6.10
2023-07-03T11:52:32.617Z,6.10
2023-07-03T11:57:38.216Z,6.20
2023-07-03T12:02:51.786Z,5.90
2023-07-03T12:07:56.626Z,6.23
2023-07-03T12:13:33.250Z,5.90
2023-07-03T12:18:36.523Z,5.18
2023-07-03T12:23:43.431Z,5.03
2023-07-03T12:28:48.130Z,5.00
2023-07-03T12:33:54.054Z,4.72
2023-07-03T12:39:00.154Z,4.28
2023-07-03T12:44:08.656Z,4.70
2023-07-03T12:49:13.998Z,4.18
2023-07-03T12:54:18.770Z,4.22
2023-07-03T12:59:27.170Z,4.00
2023-07-03T13:04:34.007Z,4.50
2023-07-03T13:09:44.175Z,5.03
2023-07-03T13:15:01.954Z,4.13
2023-07-03T13:20:27.638Z,4.40
2023-07-03T13:25:38.272Z,4.85
2023-07-03T13:30:43.303Z,5.23
2023-07-03T13:35:51.592Z,4.90
2023-07-03T13:40:58.207Z,5.05
2023-07-03T13:46:02.084Z,5.90
2023-07-03T13:51:05.666Z,5.20
2023-07-03T13:56:10.490Z,3.70
2023-07-03T14:01:25.397Z,4.47
2023-07-03T14:06:30.543Z,4.37
2023-07-03T14:11:35.576Z,4.83
2023-07-03T14:16:39.044Z,4.13
2023-07-03T14:21:42.342Z,4.50
2023-07-03T14:26:47.156Z,4.22
2023-07-03T14:31:50.753Z,4.57
2023-07-03T14:36:54.213Z,5.10
2023-07-03T14:42:00.075Z,4.72
2023-07-03T14:47:04.708Z,5.10
2023-07-03T14:52:08.468Z,4.60
2023-07-03T14:57:13.266Z,4.60
2023-07-03T15:02:16.520Z,5.03
2023-07-03T15:07:19.832Z,4.57
2023-07-03T15:12:25.406Z,5.32
2023-07-03T15:17:28.873Z,6.07
2023-07-03T15:22:32.733Z,5.10
2023-07-03T15:27:37.406Z,4.63
2023-07-03T15:32:40.865Z,4.50
2023-07-03T15:37:44.607Z,4.93
2023-07-03T15:42:49.306Z,4.60
2023-07-03T15:47:52.604Z,3.90
2023-07-03T15:52:56.912Z,3.10
2023-07-03T15:58:01.615Z,4.85
2023-07-03T16:03:05.570Z,4.25
2023-07-03T16:08:08.950Z,4.05
2023-07-03T16:13:13.672Z,4.70
2023-07-03T16:18:16.980Z,3.90
2023-07-03T16:23:20.279Z,3.90
2023-07-03T16:28:25.590Z,3.92
2023-07-03T16:33:29.591Z,3.67
2023-07-03T16:38:33.371Z,4.30
2023-07-03T16:43:40.242Z,3.95
2023-07-03T16:48:43.848Z,4.25
2023-07-03T16:53:47.624Z,4.03
2023-07-03T16:58:54.182Z,4.00
2023-07-03T17:03:57.581Z,4.15
2023-07-03T17:09:02.669Z,4.32
2023-07-03T17:14:07.468Z,4.50
2023-07-03T17:19:11.030Z,3.88
2023-07-03T17:24:14.403Z,3.90
2023-07-03T17:29:19.054Z,3.60
2023-07-03T17:34:22.779Z,3.03
2023-07-03T17:39:26.270Z,2.80
2023-07-03T17:44:31.086Z,2.75
2023-07-03T17:49:34.738Z,2.50
2023-07-03T17:54:38.636Z,2.43
2023-07-03T17:59:43.573Z,2.27
2023-07-03T18:04:46.862Z,2.30
2023-07-03T18:09:50.247Z,3.10
2023-07-03T18:14:54.911Z,2.22
2023-07-03T18:19:58.220Z,1.88
2023-07-03T18:25:02.805Z,1.60
2023-07-03T18:30:09.305Z,1.40
2023-07-03T18:35:12.595Z,1.25
2023-07-03T18:40:16.384Z,1.00
2023-07-03T18:45:21.102Z,1.30
2023-07-03T18:50:24.768Z,1.40
2023-07-03T18:55:28.076Z,1.10
2023-07-03T19:00:32.813Z,0.82
2023-07-03T19:05:36.225Z,0.80
2023-07-03T19:10:40.049Z,0.90
2023-07-03T19:15:45.219Z,0.90
2023-07-03T19:20:48.724Z,1.40
2023-07-03T19:25:56.243Z,0.90
2023-07-03T19:31:02.845Z,1.10
2023-07-03T19:36:15.305Z,0.93
2023-07-03T19:41:18.769Z,1.10
2023-07-03T19:46:24.487Z,0.90
2023-07-03T19:51:27.955Z,1.00
2023-07-03T19:56:31.472Z,1.13
2023-07-03T20:01:37.823Z,1.20
2023-07-03T20:06:41.160Z,1.20
2023-07-03T20:11:44.651Z,1.10
2023-07-03T20:16:49.590Z,1.10
2023-07-03T20:21:53.551Z,1.20
2023-07-03T20:26:57.041Z,1.25
2023-07-03T20:32:02.138Z,1.08
2023-07-03T20:37:06.275Z,1.00
2023-07-03T20:42:09.855Z,1.20
2023-07-03T20:47:15.521Z,1.10
2023-07-03T20:52:20.393Z,0.90
2023-07-03T20:57:23.869Z,1.00
2023-07-03T21:02:28.612Z,0.90
2023-07-03T21:07:32.430Z,1.20
2023-07-03T21:12:35.952Z,0.80
2023-07-03T21:17:40.668Z,0.90
2023-07-03T21:22:44.737Z,1.17
2023-07-03T21:27:48.000Z,1.00
2023-07-03T21:32:52.882Z,1.10
2023-07-03T21:37:56.220Z,0.98
2023-07-03T21:42:59.767Z,0.90
2023-07-03T21:48:05.818Z,1.10
2023-07-03T21:53:09.293Z,1.00
2023-07-03T21:58:12.987Z,1.10
2023-07-03T22:03:17.815Z,1.08
2023-07-03T22:08:22.200Z,0.90
2023-07-03T22:13:25.754Z,1.00
2023-07-03T22:18:31.162Z,1.05
2023-07-03T22:23:34.994Z,0.93
2023-07-03T22:28:38.333Z,0.90
2023-07-03T22:33:43.065Z,1.00
2023-07-03T22:38:48.513Z,2.10
2023-07-03T22:43:51.893Z,1.10
2023-07-03T22:48:56.596Z,1.30
2023-07-03T22:54:00.982Z,1.23
2023-07-03T22:59:04.292Z,1.20
2023-07-03T23:04:09.045Z,1.30
2023-07-03T23:09:12.862Z,1.20
2023-07-03T23:14:17.156Z,1.45
2023-07-03T23:19:23.367Z,1.40
2023-07-03T23:24:27.372Z,1.23
2023-07-03T23:29:30.675Z,1.40
2023-07-03T23:34:35.542Z,1.33
2023-07-03T23:39:38.995Z,1.25
2023-07-03T23:44:42.634Z,1.13
2023-07-03T23:49:48.167Z,1.30
2023-07-03T23:54:51.547Z,1.40
2023-07-03T23:59:54.817Z,1.40
